sensor_id;sensor_type;location;lat;lon;timestamp;P1;durP1;ratioP1;P2;durP2;ratioP2
22549;SDS011;11441;57.164;-2.120;2022-07-21T00:00:33;1.38;;;0.15;;
22549;SDS011;11441;57.164;-2.120;2022-07-21T00:03:00;0.13;;;0.10;;
22549;SDS011;11441;57.164;-2.120;2022-07-21T00:05:28;0.20;;;0.20;;
22549;SDS011;11441;57.164;-2.120;2022-07-21T00:07:55;1.13;;;0.10;;
22549;SDS011;11441;57.164;-2.120;2022-07-21T00:10:23;0.30;;;0.17;;
22549;SDS011;11441;57.164;-2.120;2022-07-21T00:12:53;0.28;;;0.20;;
22549;SDS011;11441;57.164;-2.120;2022-07-21T00:15:22;0.73;;;0.20;;
22549;SDS011;11441;57.164;-2.120;2022-07-21T00:17:51;0.40;;;0.20;;
22549;SDS011;11441;57.164;-2.120;2022-07-21T00:20:19;1.27;;;0.30;;
22549;SDS011;11441;57.164;-2.120;2022-07-21T00:22:46;0.80;;;0.28;;
22549;SDS011;11441;57.164;-2.120;2022-07-21T00:25:13;0.20;;;0.20;;
22549;SDS011;11441;57.164;-2.120;2022-07-21T00:27:41;0.17;;;0.17;;
22549;SDS011;11441;57.164;-2.120;2022-07-21T00:30:09;0.10;;;0.10;;
22549;SDS011;11441;57.164;-2.120;2022-07-21T00:32:37;2.25;;;0.68;;
22549;SDS011;11441;57.164;-2.120;2022-07-21T00:35:05;1.27;;;0.30;;
22549;SDS011;11441;57.164;-2.120;2022-07-21T00:37:33;2.03;;;0.32;;
22549;SDS011;11441;57.164;-2.120;2022-07-21T00:40:00;0.65;;;0.20;;
22549;SDS011;11441;57.164;-2.120;2022-07-21T00:42:27;0.70;;;0.22;;
22549;SDS011;11441;57.164;-2.120;2022-07-21T00:44:57;0.45;;;0.20;;
22549;SDS011;11441;57.164;-2.120;2022-07-21T00:47:25;0.10;;;0.10;;
22549;SDS011;11441;57.164;-2.120;2022-07-21T00:49:55;0.57;;;0.20;;
22549;SDS011;11441;57.164;-2.120;2022-07-21T00:52:23;0.40;;;0.20;;
22549;SDS011;11441;57.164;-2.120;2022-07-21T00:54:50;0.20;;;0.20;;
22549;SDS011;11441;57.164;-2.120;2022-07-21T00:57:18;0.30;;;0.20;;
22549;SDS011;11441;57.164;-2.120;2022-07-21T00:59:45;0.73;;;0.40;;
22549;SDS011;11441;57.164;-2.120;2022-07-21T01:02:13;0.65;;;0.20;;
22549;SDS011;11441;57.164;-2.120;2022-07-21T01:04:40;0.20;;;0.17;;
22549;SDS011;11441;57.164;-2.120;2022-07-21T01:07:08;0.88;;;0.30;;
22549;SDS011;11441;57.164;-2.120;2022-07-21T01:10:12;1.15;;;0.20;;
22549;SDS011;11441;57.164;-2.120;2022-07-21T01:12:40;0.13;;;0.13;;
22549;SDS011;11441;57.164;-2.120;2022-07-21T01:15:09;0.38;;;0.20;;
22549;SDS011;11441;57.164;-2.120;2022-07-21T01:17:38;0.70;;;0.35;;
22549;SDS011;11441;57.164;-2.120;2022-07-21T01:20:06;0.55;;;0.20;;
22549;SDS011;11441;57.164;-2.120;2022-07-21T01:22:39;0.20;;;0.20;;
22549;SDS011;11441;57.164;-2.120;2022-07-21T01:25:08;0.55;;;0.28;;
22549;SDS011;11441;57.164;-2.120;2022-07-21T01:27:35;0.63;;;0.20;;
22549;SDS011;11441;57.164;-2.120;2022-07-21T01:30:03;0.75;;;0.30;;
22549;SDS011;11441;57.164;-2.120;2022-07-21T01:32:35;0.43;;;0.40;;
22549;SDS011;11441;57.164;-2.120;2022-07-21T01:35:04;1.95;;;0.30;;
22549;SDS011;11441;57.164;-2.120;2022-07-21T01:37:34;1.08;;;0.20;;
22549;SDS011;11441;57.164;-2.120;2022-07-21T01:40:03;2.22;;;0.55;;
22549;SDS011;11441;57.164;-2.120;2022-07-21T01:42:49;1.65;;;0.57;;
22549;SDS011;11441;57.164;-2.120;2022-07-21T01:45:18;0.43;;;0.30;;
22549;SDS011;11441;57.164;-2.120;2022-07-21T01:47:45;0.57;;;0.25;;
22549;SDS011;11441;57.164;-2.120;2022-07-21T01:50:12;0.40;;;0.30;;
22549;SDS011;11441;57.164;-2.120;2022-07-21T01:52:39;1.48;;;0.50;;
22549;SDS011;11441;57.164;-2.120;2022-07-21T01:55:06;0.88;;;0.38;;
22549;SDS011;11441;57.164;-2.120;2022-07-21T01:57:34;0.80;;;0.25;;
22549;SDS011;11441;57.164;-2.120;2022-07-21T02:00:00;0.30;;;0.30;;
22549;SDS011;11441;57.164;-2.120;2022-07-21T02:02:46;1.55;;;0.30;;
22549;SDS011;11441;57.164;-2.120;2022-07-21T02:05:13;0.85;;;0.30;;
22549;SDS011;11441;57.164;-2.120;2022-07-21T02:07:40;1.65;;;0.57;;
22549;SDS011;11441;57.164;-2.120;2022-07-21T02:10:07;0.57;;;0.35;;
22549;SDS011;11441;57.164;-2.120;2022-07-21T02:12:34;2.35;;;0.50;;
22549;SDS011;11441;57.164;-2.120;2022-07-21T02:15:01;0.47;;;0.30;;
22549;SDS011;11441;57.164;-2.120;2022-07-21T02:17:29;1.45;;;0.40;;
22549;SDS011;11441;57.164;-2.120;2022-07-21T02:22:59;1.63;;;0.90;;
22549;SDS011;11441;57.164;-2.120;2022-07-21T02:25:26;1.73;;;0.20;;
22549;SDS011;11441;57.164;-2.120;2022-07-21T02:27:53;1.40;;;0.40;;
22549;SDS011;11441;57.164;-2.120;2022-07-21T02:30:20;0.80;;;0.20;;
22549;SDS011;11441;57.164;-2.120;2022-07-21T02:32:47;1.10;;;0.22;;
22549;SDS011;11441;57.164;-2.120;2022-07-21T02:35:14;0.70;;;0.50;;
22549;SDS011;11441;57.164;-2.120;2022-07-21T02:37:41;1.27;;;0.35;;
22549;SDS011;11441;57.164;-2.120;2022-07-21T02:40:08;0.75;;;0.25;;
22549;SDS011;11441;57.164;-2.120;2022-07-21T02:42:35;0.25;;;0.22;;
22549;SDS011;11441;57.164;-2.120;2022-07-21T02:45:07;2.55;;;0.50;;
22549;SDS011;11441;57.164;-2.120;2022-07-21T02:47:49;2.28;;;0.20;;
22549;SDS011;11441;57.164;-2.120;2022-07-21T02:50:20;1.35;;;0.45;;
22549;SDS011;11441;57.164;-2.120;2022-07-21T02:52:48;0.35;;;0.15;;
22549;SDS011;11441;57.164;-2.120;2022-07-21T02:55:16;1.60;;;0.20;;
22549;SDS011;11441;57.164;-2.120;2022-07-21T02:57:43;0.65;;;0.20;;
22549;SDS011;11441;57.164;-2.120;2022-07-21T03:00:10;0.40;;;0.20;;
22549;SDS011;11441;57.164;-2.120;2022-07-21T03:02:39;0.40;;;0.30;;
22549;SDS011;11441;57.164;-2.120;2022-07-21T03:05:06;1.00;;;0.47;;
22549;SDS011;11441;57.164;-2.120;2022-07-21T03:07:33;0.82;;;0.32;;
22549;SDS011;11441;57.164;-2.120;2022-07-21T03:10:00;0.32;;;0.32;;
22549;SDS011;11441;57.164;-2.120;2022-07-21T03:12:27;2.70;;;0.22;;
22549;SDS011;11441;57.164;-2.120;2022-07-21T03:14:54;2.42;;;0.32;;
22549;SDS011;11441;57.164;-2.120;2022-07-21T03:17:21;1.08;;;0.20;;
22549;SDS011;11441;57.164;-2.120;2022-07-21T03:19:48;1.40;;;0.30;;
22549;SDS011;11441;57.164;-2.120;2022-07-21T03:22:15;0.38;;;0.38;;
22549;SDS011;11441;57.164;-2.120;2022-07-21T03:24:42;1.75;;;0.30;;
22549;SDS011;11441;57.164;-2.120;2022-07-21T03:27:09;0.88;;;0.30;;
22549;SDS011;11441;57.164;-2.120;2022-07-21T03:29:36;1.30;;;0.40;;
22549;SDS011;11441;57.164;-2.120;2022-07-21T03:32:03;1.33;;;0.40;;
22549;SDS011;11441;57.164;-2.120;2022-07-21T03:34:30;0.40;;;0.35;;
22549;SDS011;11441;57.164;-2.120;2022-07-21T03:36:57;2.10;;;0.30;;
22549;SDS011;11441;57.164;-2.120;2022-07-21T03:39:24;1.00;;;0.25;;
22549;SDS011;11441;57.164;-2.120;2022-07-21T03:41:51;0.77;;;0.28;;
22549;SDS011;11441;57.164;-2.120;2022-07-21T03:44:18;1.48;;;0.40;;
22549;SDS011;11441;57.164;-2.120;2022-07-21T03:49:31;1.15;;;0.40;;
22549;SDS011;11441;57.164;-2.120;2022-07-21T03:51:58;0.22;;;0.22;;
22549;SDS011;11441;57.164;-2.120;2022-07-21T03:54:25;1.80;;;0.30;;
22549;SDS011;11441;57.164;-2.120;2022-07-21T03:56:51;0.20;;;0.20;;
22549;SDS011;11441;57.164;-2.120;2022-07-21T03:59:18;0.93;;;0.30;;
22549;SDS011;11441;57.164;-2.120;2022-07-21T04:04:50;0.35;;;0.35;;
22549;SDS011;11441;57.164;-2.120;2022-07-21T04:07:17;1.20;;;0.38;;
22549;SDS011;11441;57.164;-2.120;2022-07-21T04:09:44;0.80;;;0.20;;
22549;SDS011;11441;57.164;-2.120;2022-07-21T04:12:11;0.28;;;0.28;;
22549;SDS011;11441;57.164;-2.120;2022-07-21T04:14:38;1.70;;;0.75;;
22549;SDS011;11441;57.164;-2.120;2022-07-21T04:17:05;3.72;;;0.40;;
22549;SDS011;11441;57.164;-2.120;2022-07-21T04:22:23;2.50;;;0.60;;
22549;SDS011;11441;57.164;-2.120;2022-07-21T04:24:50;1.08;;;0.30;;
22549;SDS011;11441;57.164;-2.120;2022-07-21T04:27:17;0.10;;;0.10;;
22549;SDS011;11441;57.164;-2.120;2022-07-21T04:33:07;0.32;;;0.20;;
22549;SDS011;11441;57.164;-2.120;2022-07-21T04:35:34;0.20;;;0.20;;
22549;SDS011;11441;57.164;-2.120;2022-07-21T04:38:02;0.43;;;0.38;;
22549;SDS011;11441;57.164;-2.120;2022-07-21T04:40:29;1.00;;;0.45;;
22549;SDS011;11441;57.164;-2.120;2022-07-21T04:42:55;0.40;;;0.30;;
22549;SDS011;11441;57.164;-2.120;2022-07-21T04:45:22;0.52;;;0.50;;
22549;SDS011;11441;57.164;-2.120;2022-07-21T04:47:53;0.55;;;0.47;;
22549;SDS011;11441;57.164;-2.120;2022-07-21T04:50:21;0.38;;;0.20;;
22549;SDS011;11441;57.164;-2.120;2022-07-21T04:53:08;2.55;;;0.43;;
22549;SDS011;11441;57.164;-2.120;2022-07-21T04:55:36;1.35;;;0.40;;
22549;SDS011;11441;57.164;-2.120;2022-07-21T04:58:03;1.52;;;0.68;;
22549;SDS011;11441;57.164;-2.120;2022-07-21T05:00:29;2.67;;;0.47;;
22549;SDS011;11441;57.164;-2.120;2022-07-21T05:02:56;0.38;;;0.28;;
22549;SDS011;11441;57.164;-2.120;2022-07-21T05:08:28;1.27;;;0.30;;
22549;SDS011;11441;57.164;-2.120;2022-07-21T05:10:55;3.63;;;0.63;;
22549;SDS011;11441;57.164;-2.120;2022-07-21T05:13:22;0.63;;;0.20;;
22549;SDS011;11441;57.164;-2.120;2022-07-21T05:15:49;0.40;;;0.20;;
22549;SDS011;11441;57.164;-2.120;2022-07-21T05:18:16;0.65;;;0.30;;
22549;SDS011;11441;57.164;-2.120;2022-07-21T05:21:00;1.70;;;0.40;;
22549;SDS011;11441;57.164;-2.120;2022-07-21T05:23:27;0.93;;;0.30;;
22549;SDS011;11441;57.164;-2.120;2022-07-21T05:25:54;2.90;;;0.40;;
22549;SDS011;11441;57.164;-2.120;2022-07-21T05:28:27;0.55;;;0.30;;
22549;SDS011;11441;57.164;-2.120;2022-07-21T05:30:54;1.95;;;0.28;;
22549;SDS011;11441;57.164;-2.120;2022-07-21T05:33:22;0.90;;;0.30;;
22549;SDS011;11441;57.164;-2.120;2022-07-21T05:35:49;0.40;;;0.20;;
22549;SDS011;11441;57.164;-2.120;2022-07-21T05:41:01;0.35;;;0.28;;
22549;SDS011;11441;57.164;-2.120;2022-07-21T05:43:32;1.35;;;0.20;;
22549;SDS011;11441;57.164;-2.120;2022-07-21T05:45:59;0.50;;;0.28;;
22549;SDS011;11441;57.164;-2.120;2022-07-21T05:48:26;0.22;;;0.20;;
22549;SDS011;11441;57.164;-2.120;2022-07-21T05:50:53;0.75;;;0.60;;
22549;SDS011;11441;57.164;-2.120;2022-07-21T05:53:20;1.90;;;0.38;;
22549;SDS011;11441;57.164;-2.120;2022-07-21T05:55:48;1.25;;;0.40;;
22549;SDS011;11441;57.164;-2.120;2022-07-21T05:58:16;0.70;;;0.20;;
22549;SDS011;11441;57.164;-2.120;2022-07-21T06:00:45;0.98;;;0.50;;
22549;SDS011;11441;57.164;-2.120;2022-07-21T06:03:32;2.15;;;0.40;;
22549;SDS011;11441;57.164;-2.120;2022-07-21T06:05:59;2.08;;;0.73;;
22549;SDS011;11441;57.164;-2.120;2022-07-21T06:08:26;1.23;;;0.70;;
22549;SDS011;11441;57.164;-2.120;2022-07-21T06:10:52;2.30;;;0.47;;
22549;SDS011;11441;57.164;-2.120;2022-07-21T06:13:20;2.25;;;0.75;;
22549;SDS011;11441;57.164;-2.120;2022-07-21T06:15:47;1.70;;;0.45;;
22549;SDS011;11441;57.164;-2.120;2022-07-21T06:18:14;1.20;;;0.40;;
22549;SDS011;11441;57.164;-2.120;2022-07-21T06:20:41;4.32;;;0.60;;
22549;SDS011;11441;57.164;-2.120;2022-07-21T06:23:08;0.70;;;0.40;;
22549;SDS011;11441;57.164;-2.120;2022-07-21T06:25:35;1.55;;;0.68;;
22549;SDS011;11441;57.164;-2.120;2022-07-21T06:28:02;1.50;;;0.47;;
22549;SDS011;11441;57.164;-2.120;2022-07-21T06:30:30;2.60;;;0.70;;
22549;SDS011;11441;57.164;-2.120;2022-07-21T06:32:57;2.35;;;0.70;;
22549;SDS011;11441;57.164;-2.120;2022-07-21T06:35:24;2.45;;;0.70;;
22549;SDS011;11441;57.164;-2.120;2022-07-21T06:37:51;2.17;;;0.70;;
22549;SDS011;11441;57.164;-2.120;2022-07-21T06:40:18;0.43;;;0.35;;
22549;SDS011;11441;57.164;-2.120;2022-07-21T06:42:45;0.63;;;0.50;;
22549;SDS011;11441;57.164;-2.120;2022-07-21T06:45:32;0.90;;;0.52;;
22549;SDS011;11441;57.164;-2.120;2022-07-21T06:48:03;2.72;;;0.70;;
22549;SDS011;11441;57.164;-2.120;2022-07-21T06:50:31;2.30;;;0.75;;
22549;SDS011;11441;57.164;-2.120;2022-07-21T06:52:59;2.47;;;0.60;;
22549;SDS011;11441;57.164;-2.120;2022-07-21T06:55:27;1.08;;;0.55;;
22549;SDS011;11441;57.164;-2.120;2022-07-21T06:57:54;2.22;;;0.73;;
22549;SDS011;11441;57.164;-2.120;2022-07-21T07:00:21;4.30;;;0.75;;
22549;SDS011;11441;57.164;-2.120;2022-07-21T07:02:48;5.82;;;0.68;;
22549;SDS011;11441;57.164;-2.120;2022-07-21T07:05:16;1.48;;;0.80;;
22549;SDS011;11441;57.164;-2.120;2022-07-21T07:07:43;0.93;;;0.43;;
22549;SDS011;11441;57.164;-2.120;2022-07-21T07:10:10;1.65;;;0.75;;
22549;SDS011;11441;57.164;-2.120;2022-07-21T07:12:37;2.70;;;1.10;;
22549;SDS011;11441;57.164;-2.120;2022-07-21T07:15:24;5.00;;;1.20;;
22549;SDS011;11441;57.164;-2.120;2022-07-21T07:18:10;2.83;;;0.55;;
22549;SDS011;11441;57.164;-2.120;2022-07-21T07:20:37;3.22;;;0.60;;
22549;SDS011;11441;57.164;-2.120;2022-07-21T07:26:09;3.03;;;0.60;;
22549;SDS011;11441;57.164;-2.120;2022-07-21T07:31:22;1.10;;;0.30;;
22549;SDS011;11441;57.164;-2.120;2022-07-21T07:33:50;0.85;;;0.40;;
22549;SDS011;11441;57.164;-2.120;2022-07-21T07:36:17;0.90;;;0.50;;
22549;SDS011;11441;57.164;-2.120;2022-07-21T07:38:44;1.00;;;0.50;;
22549;SDS011;11441;57.164;-2.120;2022-07-21T07:41:11;2.55;;;0.50;;
22549;SDS011;11441;57.164;-2.120;2022-07-21T07:43:39;13.98;;;1.67;;
22549;SDS011;11441;57.164;-2.120;2022-07-21T07:46:06;2.03;;;0.80;;
22549;SDS011;11441;57.164;-2.120;2022-07-21T07:48:34;3.83;;;0.73;;
22549;SDS011;11441;57.164;-2.120;2022-07-21T07:51:02;1.02;;;0.40;;
22549;SDS011;11441;57.164;-2.120;2022-07-21T07:53:30;1.98;;;0.50;;
22549;SDS011;11441;57.164;-2.120;2022-07-21T07:55:57;2.05;;;0.40;;
22549;SDS011;11441;57.164;-2.120;2022-07-21T07:58:24;1.88;;;0.43;;
22549;SDS011;11441;57.164;-2.120;2022-07-21T08:00:51;2.60;;;0.40;;
22549;SDS011;11441;57.164;-2.120;2022-07-21T08:06:45;0.70;;;0.30;;
22549;SDS011;11441;57.164;-2.120;2022-07-21T08:09:12;1.13;;;0.38;;
22549;SDS011;11441;57.164;-2.120;2022-07-21T08:11:40;0.57;;;0.35;;
22549;SDS011;11441;57.164;-2.120;2022-07-21T08:14:07;1.25;;;0.40;;
22549;SDS011;11441;57.164;-2.120;2022-07-21T08:16:34;1.77;;;0.38;;
22549;SDS011;11441;57.164;-2.120;2022-07-21T08:21:47;1.92;;;0.30;;
22549;SDS011;11441;57.164;-2.120;2022-07-21T08:24:34;2.08;;;0.43;;
22549;SDS011;11441;57.164;-2.120;2022-07-21T08:27:01;0.80;;;0.28;;
22549;SDS011;11441;57.164;-2.120;2022-07-21T08:29:28;0.75;;;0.30;;
22549;SDS011;11441;57.164;-2.120;2022-07-21T08:31:55;0.47;;;0.43;;
22549;SDS011;11441;57.164;-2.120;2022-07-21T08:34:22;0.90;;;0.30;;
22549;SDS011;11441;57.164;-2.120;2022-07-21T08:36:49;0.95;;;0.22;;
22549;SDS011;11441;57.164;-2.120;2022-07-21T08:39:16;1.58;;;0.60;;
22549;SDS011;11441;57.164;-2.120;2022-07-21T08:41:43;2.17;;;0.90;;
22549;SDS011;11441;57.164;-2.120;2022-07-21T08:44:17;0.90;;;0.45;;
22549;SDS011;11441;57.164;-2.120;2022-07-21T08:46:44;1.48;;;0.60;;
22549;SDS011;11441;57.164;-2.120;2022-07-21T08:49:16;1.48;;;0.40;;
22549;SDS011;11441;57.164;-2.120;2022-07-21T08:52:06;1.73;;;0.50;;
22549;SDS011;11441;57.164;-2.120;2022-07-21T08:54:33;2.05;;;0.30;;
22549;SDS011;11441;57.164;-2.120;2022-07-21T08:57:00;4.32;;;0.70;;
22549;SDS011;11441;57.164;-2.120;2022-07-21T08:59:29;4.13;;;1.00;;
22549;SDS011;11441;57.164;-2.120;2022-07-21T09:01:57;19.63;;;2.13;;
22549;SDS011;11441;57.164;-2.120;2022-07-21T09:04:31;3.95;;;0.90;;
22549;SDS011;11441;57.164;-2.120;2022-07-21T09:07:05;3.33;;;0.85;;
22549;SDS011;11441;57.164;-2.120;2022-07-21T09:09:56;4.25;;;0.75;;
22549;SDS011;11441;57.164;-2.120;2022-07-21T09:12:30;0.93;;;0.77;;
22549;SDS011;11441;57.164;-2.120;2022-07-21T09:15:15;5.22;;;0.75;;
22549;SDS011;11441;57.164;-2.120;2022-07-21T09:18:07;4.78;;;0.60;;
22549;SDS011;11441;57.164;-2.120;2022-07-21T09:20:47;1.02;;;0.30;;
22549;SDS011;11441;57.164;-2.120;2022-07-21T09:23:16;1.05;;;0.40;;
22549;SDS011;11441;57.164;-2.120;2022-07-21T09:25:46;1.73;;;0.52;;
22549;SDS011;11441;57.164;-2.120;2022-07-21T09:33:33;3.30;;;0.60;;
22549;SDS011;11441;57.164;-2.120;2022-07-21T09:38:32;1.48;;;0.43;;
22549;SDS011;11441;57.164;-2.120;2022-07-21T09:41:04;2.00;;;0.95;;
22549;SDS011;11441;57.164;-2.120;2022-07-21T09:43:46;1.73;;;0.80;;
22549;SDS011;11441;57.164;-2.120;2022-07-21T09:46:22;1.38;;;0.50;;
22549;SDS011;11441;57.164;-2.120;2022-07-21T09:48:55;1.23;;;0.40;;
22549;SDS011;11441;57.164;-2.120;2022-07-21T09:51:44;1.08;;;0.45;;
22549;SDS011;11441;57.164;-2.120;2022-07-21T09:54:29;2.70;;;0.85;;
22549;SDS011;11441;57.164;-2.120;2022-07-21T09:56:56;1.17;;;0.30;;
22549;SDS011;11441;57.164;-2.120;2022-07-21T09:59:23;0.75;;;0.40;;
22549;SDS011;11441;57.164;-2.120;2022-07-21T10:02:21;2.25;;;0.40;;
22549;SDS011;11441;57.164;-2.120;2022-07-21T10:04:54;2.10;;;0.50;;
22549;SDS011;11441;57.164;-2.120;2022-07-21T10:07:33;2.45;;;0.40;;
22549;SDS011;11441;57.164;-2.120;2022-07-21T10:10:04;0.90;;;0.40;;
22549;SDS011;11441;57.164;-2.120;2022-07-21T10:12:32;1.30;;;0.30;;
22549;SDS011;11441;57.164;-2.120;2022-07-21T10:15:00;0.30;;;0.28;;
22549;SDS011;11441;57.164;-2.120;2022-07-21T10:17:27;1.35;;;0.20;;
22549;SDS011;11441;57.164;-2.120;2022-07-21T10:25:46;1.05;;;0.30;;
22549;SDS011;11441;57.164;-2.120;2022-07-21T10:28:14;2.05;;;0.50;;
22549;SDS011;11441;57.164;-2.120;2022-07-21T10:30:43;0.57;;;0.40;;
22549;SDS011;11441;57.164;-2.120;2022-07-21T10:33:19;2.08;;;0.52;;
22549;SDS011;11441;57.164;-2.120;2022-07-21T10:36:06;1.42;;;0.45;;
22549;SDS011;11441;57.164;-2.120;2022-07-21T10:38:34;0.82;;;0.52;;
22549;SDS011;11441;57.164;-2.120;2022-07-21T10:41:03;0.95;;;0.50;;
22549;SDS011;11441;57.164;-2.120;2022-07-21T10:43:35;1.35;;;0.45;;
22549;SDS011;11441;57.164;-2.120;2022-07-21T10:46:04;2.60;;;0.50;;
22549;SDS011;11441;57.164;-2.120;2022-07-21T10:49:02;0.63;;;0.40;;
22549;SDS011;11441;57.164;-2.120;2022-07-21T10:51:32;0.75;;;0.50;;
22549;SDS011;11441;57.164;-2.120;2022-07-21T10:54:15;1.02;;;0.32;;
22549;SDS011;11441;57.164;-2.120;2022-07-21T10:56:44;0.70;;;0.55;;
22549;SDS011;11441;57.164;-2.120;2022-07-21T10:59:34;1.27;;;0.45;;
22549;SDS011;11441;57.164;-2.120;2022-07-21T11:02:34;1.45;;;0.35;;
22549;SDS011;11441;57.164;-2.120;2022-07-21T11:05:04;1.60;;;0.40;;
22549;SDS011;11441;57.164;-2.120;2022-07-21T11:10:40;0.60;;;0.30;;
22549;SDS011;11441;57.164;-2.120;2022-07-21T11:13:16;0.52;;;0.17;;
22549;SDS011;11441;57.164;-2.120;2022-07-21T11:15:47;0.40;;;0.40;;
22549;SDS011;11441;57.164;-2.120;2022-07-21T11:18:21;0.20;;;0.20;;
22549;SDS011;11441;57.164;-2.120;2022-07-21T11:23:58;1.55;;;0.43;;
22549;SDS011;11441;57.164;-2.120;2022-07-21T11:26:25;1.65;;;0.60;;
22549;SDS011;11441;57.164;-2.120;2022-07-21T11:29:05;1.65;;;0.43;;
22549;SDS011;11441;57.164;-2.120;2022-07-21T11:34:19;0.65;;;0.40;;
22549;SDS011;11441;57.164;-2.120;2022-07-21T11:36:46;5.82;;;0.60;;
22549;SDS011;11441;57.164;-2.120;2022-07-21T11:39:34;0.90;;;0.30;;
22549;SDS011;11441;57.164;-2.120;2022-07-21T11:42:05;1.55;;;0.60;;
22549;SDS011;11441;57.164;-2.120;2022-07-21T11:44:35;0.60;;;0.30;;
22549;SDS011;11441;57.164;-2.120;2022-07-21T11:47:03;1.52;;;0.60;;
22549;SDS011;11441;57.164;-2.120;2022-07-21T11:49:32;2.78;;;0.57;;
22549;SDS011;11441;57.164;-2.120;2022-07-21T11:52:08;4.20;;;0.50;;
22549;SDS011;11441;57.164;-2.120;2022-07-21T11:54:43;2.13;;;0.50;;
22549;SDS011;11441;57.164;-2.120;2022-07-21T11:57:12;1.45;;;0.60;;
22549;SDS011;11441;57.164;-2.120;2022-07-21T11:59:41;1.35;;;0.30;;
22549;SDS011;11441;57.164;-2.120;2022-07-21T12:04:54;0.57;;;0.30;;
22549;SDS011;11441;57.164;-2.120;2022-07-21T12:07:26;1.73;;;0.57;;
22549;SDS011;11441;57.164;-2.120;2022-07-21T12:10:36;0.73;;;0.40;;
22549;SDS011;11441;57.164;-2.120;2022-07-21T12:12:55;2.42;;;0.55;;
22549;SDS011;11441;57.164;-2.120;2022-07-21T12:15:35;0.80;;;0.20;;
22549;SDS011;11441;57.164;-2.120;2022-07-21T12:18:21;0.95;;;0.68;;
22549;SDS011;11441;57.164;-2.120;2022-07-21T12:21:00;1.65;;;0.35;;
22549;SDS011;11441;57.164;-2.120;2022-07-21T12:23:29;1.38;;;0.30;;
22549;SDS011;11441;57.164;-2.120;2022-07-21T12:25:59;2.13;;;0.50;;
22549;SDS011;11441;57.164;-2.120;2022-07-21T12:28:46;0.82;;;0.25;;
22549;SDS011;11441;57.164;-2.120;2022-07-21T12:31:21;0.32;;;0.30;;
22549;SDS011;11441;57.164;-2.120;2022-07-21T12:33:51;0.32;;;0.30;;
22549;SDS011;11441;57.164;-2.120;2022-07-21T12:36:43;4.43;;;1.10;;
22549;SDS011;11441;57.164;-2.120;2022-07-21T12:39:21;0.52;;;0.40;;
22549;SDS011;11441;57.164;-2.120;2022-07-21T12:42:08;0.73;;;0.20;;
22549;SDS011;11441;57.164;-2.120;2022-07-21T12:44:53;3.85;;;0.63;;
22549;SDS011;11441;57.164;-2.120;2022-07-21T12:47:21;1.85;;;0.50;;
22549;SDS011;11441;57.164;-2.120;2022-07-21T12:49:56;2.42;;;0.40;;
22549;SDS011;11441;57.164;-2.120;2022-07-21T12:52:39;4.30;;;0.50;;
22549;SDS011;11441;57.164;-2.120;2022-07-21T12:57:53;0.85;;;0.47;;
22549;SDS011;11441;57.164;-2.120;2022-07-21T13:03:31;1.50;;;0.60;;
22549;SDS011;11441;57.164;-2.120;2022-07-21T13:06:01;2.72;;;1.00;;
22549;SDS011;11441;57.164;-2.120;2022-07-21T13:08:30;1.48;;;0.32;;
22549;SDS011;11441;57.164;-2.120;2022-07-21T13:10:58;2.42;;;0.93;;
22549;SDS011;11441;57.164;-2.120;2022-07-21T13:13:25;3.28;;;0.80;;
22549;SDS011;11441;57.164;-2.120;2022-07-21T13:15:53;0.98;;;0.30;;
22549;SDS011;11441;57.164;-2.120;2022-07-21T13:18:21;1.27;;;0.50;;
22549;SDS011;11441;57.164;-2.120;2022-07-21T13:20:49;3.30;;;0.80;;
22549;SDS011;11441;57.164;-2.120;2022-07-21T13:23:17;3.95;;;0.47;;
22549;SDS011;11441;57.164;-2.120;2022-07-21T13:26:03;3.22;;;0.60;;
22549;SDS011;11441;57.164;-2.120;2022-07-21T13:28:32;3.67;;;0.90;;
22549;SDS011;11441;57.164;-2.120;2022-07-21T13:31:02;4.38;;;0.80;;
22549;SDS011;11441;57.164;-2.120;2022-07-21T13:33:32;8.63;;;2.30;;
22549;SDS011;11441;57.164;-2.120;2022-07-21T13:36:00;1.85;;;0.82;;
22549;SDS011;11441;57.164;-2.120;2022-07-21T13:38:27;1.90;;;0.80;;
22549;SDS011;11441;57.164;-2.120;2022-07-21T13:40:54;2.08;;;1.23;;
22549;SDS011;11441;57.164;-2.120;2022-07-21T13:43:41;2.15;;;0.65;;
22549;SDS011;11441;57.164;-2.120;2022-07-21T13:46:08;1.33;;;0.88;;
22549;SDS011;11441;57.164;-2.120;2022-07-21T13:48:35;2.13;;;0.88;;
22549;SDS011;11441;57.164;-2.120;2022-07-21T13:51:11;1.13;;;0.43;;
22549;SDS011;11441;57.164;-2.120;2022-07-21T13:53:39;5.28;;;0.90;;
22549;SDS011;11441;57.164;-2.120;2022-07-21T13:56:07;4.13;;;1.58;;
22549;SDS011;11441;57.164;-2.120;2022-07-21T13:58:35;2.42;;;1.00;;
22549;SDS011;11441;57.164;-2.120;2022-07-21T14:01:03;4.15;;;0.60;;
22549;SDS011;11441;57.164;-2.120;2022-07-21T14:03:31;5.13;;;1.20;;
22549;SDS011;11441;57.164;-2.120;2022-07-21T14:05:58;2.75;;;0.80;;
22549;SDS011;11441;57.164;-2.120;2022-07-21T14:08:25;5.28;;;1.60;;
22549;SDS011;11441;57.164;-2.120;2022-07-21T14:10:52;4.22;;;0.98;;
22549;SDS011;11441;57.164;-2.120;2022-07-21T14:13:37;4.90;;;1.27;;
22549;SDS011;11441;57.164;-2.120;2022-07-21T14:16:04;9.00;;;1.35;;
22549;SDS011;11441;57.164;-2.120;2022-07-21T14:18:32;2.00;;;0.85;;
22549;SDS011;11441;57.164;-2.120;2022-07-21T14:20:59;1.65;;;0.60;;
22549;SDS011;11441;57.164;-2.120;2022-07-21T14:23:28;6.20;;;1.23;;
22549;SDS011;11441;57.164;-2.120;2022-07-21T14:25:56;3.13;;;1.08;;
22549;SDS011;11441;57.164;-2.120;2022-07-21T14:28:40;5.18;;;1.48;;
22549;SDS011;11441;57.164;-2.120;2022-07-21T14:31:07;2.90;;;1.20;;
22549;SDS011;11441;57.164;-2.120;2022-07-21T14:33:34;4.38;;;0.80;;
22549;SDS011;11441;57.164;-2.120;2022-07-21T14:36:01;3.60;;;1.23;;
22549;SDS011;11441;57.164;-2.120;2022-07-21T14:38:28;5.60;;;1.35;;
22549;SDS011;11441;57.164;-2.120;2022-07-21T14:40:55;9.02;;;1.20;;
22549;SDS011;11441;57.164;-2.120;2022-07-21T14:43:41;3.95;;;1.30;;
22549;SDS011;11441;57.164;-2.120;2022-07-21T14:46:08;3.35;;;0.90;;
22549;SDS011;11441;57.164;-2.120;2022-07-21T14:48:35;11.13;;;2.00;;
22549;SDS011;11441;57.164;-2.120;2022-07-21T14:51:02;3.08;;;1.50;;
22549;SDS011;11441;57.164;-2.120;2022-07-21T14:53:29;5.10;;;1.05;;
22549;SDS011;11441;57.164;-2.120;2022-07-21T14:55:56;4.68;;;1.33;;
22549;SDS011;11441;57.164;-2.120;2022-07-21T14:58:23;6.15;;;1.10;;
22549;SDS011;11441;57.164;-2.120;2022-07-21T15:00:50;4.80;;;1.10;;
22549;SDS011;11441;57.164;-2.120;2022-07-21T15:03:17;8.30;;;1.60;;
22549;SDS011;11441;57.164;-2.120;2022-07-21T15:06:03;6.05;;;1.58;;
22549;SDS011;11441;57.164;-2.120;2022-07-21T15:08:31;6.38;;;1.40;;
22549;SDS011;11441;57.164;-2.120;2022-07-21T15:10:58;4.22;;;0.90;;
22549;SDS011;11441;57.164;-2.120;2022-07-21T15:13:25;5.53;;;1.08;;
22549;SDS011;11441;57.164;-2.120;2022-07-21T15:15:55;6.72;;;1.10;;
22549;SDS011;11441;57.164;-2.120;2022-07-21T15:18:22;6.25;;;1.38;;
22549;SDS011;11441;57.164;-2.120;2022-07-21T15:20:49;5.28;;;1.25;;
22549;SDS011;11441;57.164;-2.120;2022-07-21T15:23:16;3.47;;;1.25;;
22549;SDS011;11441;57.164;-2.120;2022-07-21T15:25:43;6.32;;;1.33;;
22549;SDS011;11441;57.164;-2.120;2022-07-21T15:28:27;5.72;;;0.80;;
22549;SDS011;11441;57.164;-2.120;2022-07-21T15:36:47;4.82;;;1.63;;
22549;SDS011;11441;57.164;-2.120;2022-07-21T15:41:59;5.40;;;1.80;;
22549;SDS011;11441;57.164;-2.120;2022-07-21T15:47:12;4.35;;;1.20;;
22549;SDS011;11441;57.164;-2.120;2022-07-21T15:49:39;9.80;;;1.83;;
22549;SDS011;11441;57.164;-2.120;2022-07-21T15:52:06;5.88;;;1.33;;
22549;SDS011;11441;57.164;-2.120;2022-07-21T15:54:33;11.18;;;1.45;;
22549;SDS011;11441;57.164;-2.120;2022-07-21T15:57:20;5.65;;;1.33;;
22549;SDS011;11441;57.164;-2.120;2022-07-21T15:59:47;11.27;;;1.90;;
22549;SDS011;11441;57.164;-2.120;2022-07-21T16:02:16;6.00;;;1.40;;
22549;SDS011;11441;57.164;-2.120;2022-07-21T16:04:44;6.05;;;1.45;;
22549;SDS011;11441;57.164;-2.120;2022-07-21T16:07:13;5.88;;;1.70;;